Terminal Aerodrome Forecast
Issued by NWS Wilmington, OH

Current Version | Previous Version | Graphics & Text | Print | Product List | Glossary On
Versions: 1 2 3 4 5 6 7 8 9 10 11 12 13 14 15 16 17 18 19 20 21
232
FTUS41 KILN 251730
TAFDAY
TAF
KDAY 251730Z 2518/2618 17004KT P6SM FEW035
     FM260000 14005KT P6SM SKC
     FM260900 19008KT P6SM VCSH SCT050 BKN100
     FM261300 26014G24KT P6SM -SHRA SCT015 OVC025=

USA.gov is the U.S. government's official web portal to all federal, state and local government web resources and services.